Time;durP1;ratioP1;P1;durP2;ratioP2;P2;SDS_P1;SDS_P2;PMS_P1;PMS_P2;Temp;Humidity;BMP_temperature;BMP_pressure;BME280_temperature;BME280_humidity;BME280_pressure;Samples;Min_cycle;Max_cycle;Signal;HPM_P1;HPM_P2
2023/06/22 00:00:22;;;;;;;;;;;16.90;99.90;;;;;;7303937;19;8945;-71
2023/06/22 00:02:51;;;;;;;;;;;16.90;99.90;;;;;;7302649;19;9582;-71
2023/06/22 00:05:21;;;;;;;;;;;16.90;99.90;;;;;;7304500;19;9233;-71
2023/06/22 00:07:52;;;;;;;;;;;16.90;99.90;;;;;;7306324;19;9355;-71
2023/06/22 00:10:21;;;;;;;;;;;16.90;99.90;;;;;;7306282;19;9245;-71
2023/06/22 00:12:50;;;;;;;;;;;16.90;99.90;;;;;;7303277;19;10215;-71
2023/06/22 00:15:19;;;;;;;;;;;16.90;99.90;;;;;;7304993;19;9654;-71
2023/06/22 00:17:48;;;;;;;;;;;16.80;99.90;;;;;;7306033;19;10379;-71
2023/06/22 00:20:18;;;;;;;;;;;16.90;99.90;;;;;;7306278;19;9502;-71
2023/06/22 00:22:47;;;;;;;;;;;16.80;99.90;;;;;;7306845;19;9586;-71
2023/06/22 00:25:19;;;;;;;;;;;16.70;99.90;;;;;;7305850;19;8944;-71
2023/06/22 00:27:49;;;;;;;;;;;16.70;99.90;;;;;;7301127;19;11370;-71
2023/06/22 00:30:18;;;;;;;;;;;16.70;99.90;;;;;;7302607;19;11104;-71
2023/06/22 00:32:48;;;;;;;;;;;16.60;99.90;;;;;;7302020;19;9252;-71
2023/06/22 00:35:17;;;;;;;;;;;16.60;99.90;;;;;;7301775;19;9378;-71
2023/06/22 00:37:46;;;;;;;;;;;16.60;99.90;;;;;;7303495;19;9252;-71
2023/06/22 00:40:17;;;;;;;;;;;16.60;99.90;;;;;;7302329;19;9257;-71
2023/06/22 00:42:49;;;;;;;;;;;16.60;99.90;;;;;;7303626;19;9327;-71
2023/06/22 00:45:18;;;;;;;;;;;16.60;99.90;;;;;;7303720;19;9406;-71
2023/06/22 00:47:47;;;;;;;;;;;16.50;99.90;;;;;;7304075;19;9099;-71
2023/06/22 00:50:23;;;;;;;;;;;16.50;99.90;;;;;;7302975;19;9406;-71
2023/06/22 00:52:56;;;;;;;;;;;16.60;99.90;;;;;;7303607;19;9256;-71
2023/06/22 00:55:26;;;;;;;;;;;16.50;99.90;;;;;;7303561;19;10341;-71
2023/06/22 00:57:58;;;;;;;;;;;16.40;99.90;;;;;;7308166;19;10070;-71
2023/06/22 01:00:28;;;;;;;;;;;16.50;99.90;;;;;;7304564;19;9229;-71
2023/06/22 01:02:57;;;;;;;;;;;16.40;99.90;;;;;;7302036;19;9272;-71
2023/06/22 01:05:29;;;;;;;;;;;16.40;99.90;;;;;;7304249;19;9327;-71
2023/06/22 01:08:11;;;;;;;;;;;16.30;99.90;;;;;;7303681;19;9288;-70
2023/06/22 01:10:47;;;;;;;;;;;16.40;99.90;;;;;;7303961;19;9559;-71
2023/06/22 01:13:31;;;;;;;;;;;16.40;99.90;;;;;;7304099;19;9748;-71
2023/06/22 01:16:05;;;;;;;;;;;16.20;99.90;;;;;;7303121;19;9138;-71
2023/06/22 01:18:40;;;;;;;;;;;16.20;99.90;;;;;;7303877;19;9653;-71
2023/06/22 01:21:13;;;;;;;;;;;16.20;99.90;;;;;;7302540;19;8944;-71
2023/06/22 01:24:01;;;;;;;;;;;16.20;99.90;;;;;;7302641;19;9001;-71
2023/06/22 01:26:41;;;;;;;;;;;16.20;99.90;;;;;;7302511;19;9261;-71
2023/06/22 01:29:17;;;;;;;;;;;16.10;99.90;;;;;;7301342;19;8940;-71
2023/06/22 01:31:49;;;;;;;;;;;16.10;99.90;;;;;;7301045;19;9443;-71
2023/06/22 01:34:21;;;;;;;;;;;16.10;99.90;;;;;;7305051;19;9342;-71
2023/06/22 01:36:50;;;;;;;;;;;16.00;99.90;;;;;;7302823;19;9258;-70
2023/06/22 01:39:21;;;;;;;;;;;16.10;99.90;;;;;;7303007;19;9512;-71
2023/06/22 01:41:51;;;;;;;;;;;16.10;99.90;;;;;;7291413;19;11260;-71
2023/06/22 01:44:24;;;;;;;;;;;16.10;99.90;;;;;;7302620;19;9604;-71
2023/06/22 01:46:55;;;;;;;;;;;16.40;99.90;;;;;;7308393;19;9252;-70
2023/06/22 01:49:25;;;;;;;;;;;16.40;99.90;;;;;;7306042;19;9331;-71
2023/06/22 01:51:54;;;;;;;;;;;16.40;99.90;;;;;;7307061;19;8945;-71
2023/06/22 01:54:23;;;;;;;;;;;16.20;99.90;;;;;;7306162;19;9019;-71
2023/06/22 01:56:52;;;;;;;;;;;16.10;99.90;;;;;;7309368;19;9455;-71
2023/06/22 01:59:32;;;;;;;;;;;16.00;99.90;;;;;;7312166;19;9406;-71
2023/06/22 02:02:07;;;;;;;;;;;16.00;99.90;;;;;;7307646;19;9798;-71
2023/06/22 02:04:45;;;;;;;;;;;16.10;99.90;;;;;;7307880;19;9803;-71
2023/06/22 02:07:18;;;;;;;;;;;16.00;99.90;;;;;;7308504;19;9426;-71
2023/06/22 02:09:50;;;;;;;;;;;15.90;99.90;;;;;;7306352;19;9256;-71
2023/06/22 02:12:27;;;;;;;;;;;15.90;99.90;;;;;;7306150;19;9272;-71
2023/06/22 02:15:01;;;;;;;;;;;16.00;99.90;;;;;;7306068;19;9265;-71
2023/06/22 02:17:32;;;;;;;;;;;15.90;99.90;;;;;;7305542;19;10149;-71
2023/06/22 02:20:03;;;;;;;;;;;15.90;99.90;;;;;;7307842;19;9431;-71
2023/06/22 02:22:32;;;;;;;;;;;15.80;99.90;;;;;;7307464;19;9864;-71
2023/06/22 02:25:02;;;;;;;;;;;15.90;99.90;;;;;;7305871;19;9406;-71
2023/06/22 02:27:31;;;;;;;;;;;16.10;99.90;;;;;;7305391;19;9055;-71
2023/06/22 02:30:03;;;;;;;;;;;16.00;99.90;;;;;;7302444;19;9597;-71
2023/06/22 02:32:35;;;;;;;;;;;15.90;99.90;;;;;;7308942;19;9350;-71
2023/06/22 02:35:06;;;;;;;;;;;15.90;99.90;;;;;;7307570;19;10867;-70
2023/06/22 02:37:35;;;;;;;;;;;15.90;99.90;;;;;;7307792;19;9283;-71
2023/06/22 02:40:07;;;;;;;;;;;15.90;99.90;;;;;;7307792;19;9211;-71
2023/06/22 02:42:36;;;;;;;;;;;15.90;99.90;;;;;;7308615;19;9213;-71
2023/06/22 02:45:09;;;;;;;;;;;15.90;99.90;;;;;;7307505;19;9236;-71
2023/06/22 02:47:38;;;;;;;;;;;15.80;99.90;;;;;;7307045;19;9474;-71
2023/06/22 02:50:08;;;;;;;;;;;15.80;99.90;;;;;;7306873;19;9161;-71
2023/06/22 02:52:39;;;;;;;;;;;15.80;99.90;;;;;;7309965;19;9245;-70
2023/06/22 02:55:10;;;;;;;;;;;15.80;99.90;;;;;;7308410;19;9314;-71
2023/06/22 02:57:44;;;;;;;;;;;15.80;99.90;;;;;;7312066;19;9278;-71
2023/06/22 03:00:19;;;;;;;;;;;15.80;99.90;;;;;;7306755;19;9481;-71
2023/06/22 03:02:49;;;;;;;;;;;15.90;99.90;;;;;;7308273;19;9563;-70
2023/06/22 03:05:19;;;;;;;;;;;15.90;99.90;;;;;;7307139;19;9264;-71
2023/06/22 03:07:48;;;;;;;;;;;15.80;99.90;;;;;;7310435;19;9381;-71
2023/06/22 03:10:18;;;;;;;;;;;15.70;99.90;;;;;;7304228;19;8945;-71
2023/06/22 03:12:47;;;;;;;;;;;15.70;99.90;;;;;;7307597;19;10212;-71
2023/06/22 03:15:19;;;;;;;;;;;15.70;99.90;;;;;;7300539;19;10595;-71
2023/06/22 03:17:48;;;;;;;;;;;15.60;99.90;;;;;;7304766;19;8944;-71
2023/06/22 03:20:19;;;;;;;;;;;15.60;99.90;;;;;;7306778;19;9275;-71
2023/06/22 03:22:48;;;;;;;;;;;15.50;99.90;;;;;;7304467;19;10854;-72
2023/06/22 03:25:18;;;;;;;;;;;15.70;99.90;;;;;;7306739;19;9534;-71
2023/06/22 03:27:48;;;;;;;;;;;15.70;99.90;;;;;;7307658;19;9207;-71
2023/06/22 03:30:20;;;;;;;;;;;15.60;99.90;;;;;;7310067;19;9559;-71
2023/06/22 03:32:49;;;;;;;;;;;15.60;99.90;;;;;;7310323;19;9446;-71
2023/06/22 03:35:18;;;;;;;;;;;15.50;99.90;;;;;;7304889;19;9269;-71
2023/06/22 03:37:48;;;;;;;;;;;15.60;99.90;;;;;;7304006;19;10295;-71
2023/06/22 03:40:17;;;;;;;;;;;15.60;99.90;;;;;;7303139;19;9083;-71
2023/06/22 03:42:46;;;;;;;;;;;15.60;99.90;;;;;;7305437;19;9205;-71
2023/06/22 03:45:15;;;;;;;;;;;15.60;99.90;;;;;;7302399;19;9312;-71
2023/06/22 03:47:46;;;;;;;;;;;15.60;99.90;;;;;;7304561;19;9236;-71
2023/06/22 03:50:16;;;;;;;;;;;15.60;99.90;;;;;;7303395;19;10409;-70
2023/06/22 03:52:45;;;;;;;;;;;15.70;99.90;;;;;;7302021;19;9662;-71
2023/06/22 03:55:14;;;;;;;;;;;15.80;99.90;;;;;;7306038;19;9535;-71
2023/06/22 03:57:43;;;;;;;;;;;15.80;99.90;;;;;;7308472;19;9000;-71
2023/06/22 04:00:13;;;;;;;;;;;15.80;99.90;;;;;;7305660;19;9359;-71
2023/06/22 04:02:42;;;;;;;;;;;15.80;99.90;;;;;;7303630;19;9224;-71
2023/06/22 04:05:14;;;;;;;;;;;15.80;99.90;;;;;;7305509;19;9674;-71
2023/06/22 04:07:43;;;;;;;;;;;15.90;99.90;;;;;;7304493;19;8945;-71
2023/06/22 04:10:13;;;;;;;;;;;15.90;99.90;;;;;;7304748;19;9435;-72
2023/06/22 04:12:42;;;;;;;;;;;15.90;99.90;;;;;;7306563;19;9282;-71
2023/06/22 04:15:12;;;;;;;;;;;15.90;99.90;;;;;;7305277;19;9442;-72
2023/06/22 04:17:41;;;;;;;;;;;16.00;99.90;;;;;;7306547;19;9294;-72
2023/06/22 04:20:14;;;;;;;;;;;16.00;99.90;;;;;;7305111;19;10296;-72
2023/06/22 04:22:43;;;;;;;;;;;16.20;99.90;;;;;;7304920;19;9005;-72
2023/06/22 04:25:12;;;;;;;;;;;16.20;99.90;;;;;;7303336;19;10919;-72
2023/06/22 04:27:42;;;;;;;;;;;16.30;99.90;;;;;;7304353;19;9225;-72
2023/06/22 04:30:12;;;;;;;;;;;16.30;99.90;;;;;;7303795;19;9479;-72
2023/06/22 04:32:42;;;;;;;;;;;16.40;99.90;;;;;;7305865;19;9463;-72
2023/06/22 04:35:15;;;;;;;;;;;16.40;99.90;;;;;;7302819;19;9061;-73
2023/06/22 04:37:48;;;;;;;;;;;16.40;99.90;;;;;;7298522;19;9284;-73
2023/06/22 04:40:17;;;;;;;;;;;16.40;99.90;;;;;;7303439;19;10193;-72
2023/06/22 04:42:53;;;;;;;;;;;16.50;99.90;;;;;;7303409;19;9230;-72
2023/06/22 04:45:23;;;;;;;;;;;16.50;99.90;;;;;;7302361;19;10192;-72
2023/06/22 04:47:52;;;;;;;;;;;16.60;99.90;;;;;;7306226;19;9390;-72
2023/06/22 04:50:24;;;;;;;;;;;16.60;99.90;;;;;;7303017;19;8944;-72
2023/06/22 04:52:54;;;;;;;;;;;16.60;99.90;;;;;;7302399;19;10696;-73
2023/06/22 04:55:25;;;;;;;;;;;16.70;99.90;;;;;;7304480;19;9400;-72
2023/06/22 04:57:55;;;;;;;;;;;16.70;99.90;;;;;;7309457;19;10800;-72
2023/06/22 05:00:24;;;;;;;;;;;16.70;99.90;;;;;;7303802;19;9298;-73
2023/06/22 05:02:53;;;;;;;;;;;16.70;99.90;;;;;;7303410;19;8945;-72
2023/06/22 05:05:25;;;;;;;;;;;16.80;99.90;;;;;;7304245;19;9379;-73
2023/06/22 05:07:59;;;;;;;;;;;16.80;99.90;;;;;;7305935;19;9492;-72
2023/06/22 05:10:28;;;;;;;;;;;16.90;99.90;;;;;;7258262;19;14068;-73
2023/06/22 05:12:57;;;;;;;;;;;17.60;99.90;;;;;;7264441;19;14752;-72
2023/06/22 05:15:30;;;;;;;;;;;17.90;99.90;;;;;;7303258;19;11085;-72
2023/06/22 05:18:05;;;;;;;;;;;17.90;99.90;;;;;;7304893;19;9473;-72
2023/06/22 05:20:36;;;;;;;;;;;17.80;99.90;;;;;;7308677;19;10908;-72
2023/06/22 05:23:06;;;;;;;;;;;17.70;99.90;;;;;;7311470;19;10850;-72
2023/06/22 05:25:35;;;;;;;;;;;17.70;99.90;;;;;;7309808;19;11601;-72
2023/06/22 05:28:11;;;;;;;;;;;17.60;99.90;;;;;;7310782;19;9245;-72
2023/06/22 05:30:41;;;;;;;;;;;17.60;99.90;;;;;;7306276;19;11075;-72
2023/06/22 05:33:11;;;;;;;;;;;17.60;99.90;;;;;;7311967;19;9300;-72
2023/06/22 05:35:42;;;;;;;;;;;17.60;99.90;;;;;;7309876;19;9301;-72
2023/06/22 05:38:11;;;;;;;;;;;17.70;99.90;;;;;;7308680;19;9249;-72
2023/06/22 05:40:40;;;;;;;;;;;17.70;99.90;;;;;;7309450;19;9297;-72
2023/06/22 05:43:09;;;;;;;;;;;17.70;99.90;;;;;;7311113;19;9274;-72
2023/06/22 05:45:38;;;;;;;;;;;17.80;99.90;;;;;;7308713;19;9555;-72
2023/06/22 05:48:08;;;;;;;;;;;17.80;99.90;;;;;;7310552;19;9428;-73
2023/06/22 05:50:38;;;;;;;;;;;17.90;99.90;;;;;;7309076;19;9251;-72
2023/06/22 05:53:10;;;;;;;;;;;17.90;99.90;;;;;;7309413;19;10609;-72
2023/06/22 05:55:39;;;;;;;;;;;17.90;99.90;;;;;;7309288;19;10803;-73
2023/06/22 05:58:08;;;;;;;;;;;17.90;99.90;;;;;;7265434;19;14158;-72
2023/06/22 06:00:38;;;;;;;;;;;17.90;99.90;;;;;;7307451;19;9324;-72
2023/06/22 06:03:07;;;;;;;;;;;17.90;99.90;;;;;;7306726;19;10939;-73
2023/06/22 06:05:37;;;;;;;;;;;18.00;99.90;;;;;;7306671;19;9252;-75
2023/06/22 06:08:11;;;;;;;;;;;18.00;99.90;;;;;;7303523;19;9273;-72
2023/06/22 06:10:40;;;;;;;;;;;18.00;99.90;;;;;;7306679;19;9214;-77
2023/06/22 06:13:09;;;;;;;;;;;18.10;99.90;;;;;;7308236;19;9247;-70
2023/06/22 06:15:38;;;;;;;;;;;18.20;99.90;;;;;;7307687;19;9261;-71
2023/06/22 06:18:07;;;;;;;;;;;18.20;99.90;;;;;;7305859;19;9688;-71
2023/06/22 06:20:36;;;;;;;;;;;18.40;99.90;;;;;;7308889;19;9289;-72
2023/06/22 06:23:05;;;;;;;;;;;18.40;99.90;;;;;;7312719;19;9542;-71
2023/06/22 06:25:37;;;;;;;;;;;18.40;99.90;;;;;;7285813;19;11171;-70
2023/06/22 06:28:07;;;;;;;;;;;18.50;99.90;;;;;;7302346;19;9527;-70
2023/06/22 06:30:37;;;;;;;;;;;18.50;99.90;;;;;;7304324;19;9115;-70
2023/06/22 06:33:08;;;;;;;;;;;18.40;99.90;;;;;;7308944;19;8996;-69
2023/06/22 06:35:38;;;;;;;;;;;18.40;99.90;;;;;;7303514;19;10150;-70
2023/06/22 06:38:07;;;;;;;;;;;18.50;99.90;;;;;;7308916;19;9724;-70
2023/06/22 06:40:39;;;;;;;;;;;18.60;99.90;;;;;;7302270;19;9154;-70
2023/06/22 06:43:08;;;;;;;;;;;18.80;99.90;;;;;;7306729;19;9371;-70
2023/06/22 06:45:37;;;;;;;;;;;18.80;99.90;;;;;;7306421;19;9235;-70
2023/06/22 06:48:06;;;;;;;;;;;18.90;99.90;;;;;;7306538;19;9534;-70
2023/06/22 06:50:35;;;;;;;;;;;19.00;99.90;;;;;;7294068;19;9309;-70
2023/06/22 06:53:05;;;;;;;;;;;19.10;99.90;;;;;;7305119;19;9753;-70
2023/06/22 06:55:34;;;;;;;;;;;19.10;99.90;;;;;;7293681;19;9643;-70
2023/06/22 06:58:07;;;;;;;;;;;19.30;99.90;;;;;;7299223;19;9568;-70
2023/06/22 07:00:36;;;;;;;;;;;19.40;99.90;;;;;;7283275;19;9359;-70
2023/06/22 07:03:06;;;;;;;;;;;19.50;99.90;;;;;;7300486;19;9433;-70
2023/06/22 07:05:36;;;;;;;;;;;19.70;99.90;;;;;;7301857;19;9256;-70
2023/06/22 07:08:05;;;;;;;;;;;20.10;99.90;;;;;;7304398;19;9361;-70
2023/06/22 07:10:34;;;;;;;;;;;20.40;99.90;;;;;;7304241;19;9841;-70
2023/06/22 07:13:05;;;;;;;;;;;20.80;99.90;;;;;;7308250;19;10174;-70
2023/06/22 07:15:35;;;;;;;;;;;20.80;99.90;;;;;;7305332;19;9437;-70
2023/06/22 07:18:04;;;;;;;;;;;21.00;99.90;;;;;;7307278;19;9600;-70
2023/06/22 07:20:33;;;;;;;;;;;21.40;99.90;;;;;;7306615;19;9257;-70
2023/06/22 07:23:02;;;;;;;;;;;21.40;99.90;;;;;;7307905;19;9276;-70
2023/06/22 07:25:31;;;;;;;;;;;21.50;99.90;;;;;;7306111;19;9007;-70
2023/06/22 07:28:03;;;;;;;;;;;21.40;99.90;;;;;;7308140;19;11780;-70
2023/06/22 07:30:36;;;;;;;;;;;21.40;99.90;;;;;;7305201;19;10456;-70
2023/06/22 07:33:08;;;;;;;;;;;21.30;99.90;;;;;;7304937;19;9466;-70
2023/06/22 07:35:37;;;;;;;;;;;21.20;99.90;;;;;;7305806;19;9308;-71
2023/06/22 07:38:07;;;;;;;;;;;21.30;99.90;;;;;;7303855;19;9261;-70
2023/06/22 07:40:36;;;;;;;;;;;21.50;99.90;;;;;;7306561;19;9577;-70
2023/06/22 07:43:06;;;;;;;;;;;21.70;99.90;;;;;;7305265;19;9383;-70
2023/06/22 07:45:37;;;;;;;;;;;21.90;99.90;;;;;;7305479;19;9250;-71
2023/06/22 07:48:06;;;;;;;;;;;22.00;99.90;;;;;;7304566;19;9194;-70
2023/06/22 07:50:36;;;;;;;;;;;22.10;99.90;;;;;;7311197;19;11892;-70
2023/06/22 07:53:05;;;;;;;;;;;22.20;99.90;;;;;;7305764;19;9373;-70
2023/06/22 07:55:34;;;;;;;;;;;22.50;99.90;;;;;;7304786;19;9235;-71
2023/06/22 07:58:03;;;;;;;;;;;22.50;99.90;;;;;;7305895;19;9465;-70
2023/06/22 08:00:33;;;;;;;;;;;22.50;99.90;;;;;;7305495;19;10130;-70
2023/06/22 08:03:05;;;;;;;;;;;22.60;99.90;;;;;;7303948;19;9340;-69
2023/06/22 08:05:35;;;;;;;;;;;22.60;99.90;;;;;;7303557;19;9328;-70
2023/06/22 08:08:04;;;;;;;;;;;22.60;99.90;;;;;;7307959;19;10544;-70
2023/06/22 08:10:33;;;;;;;;;;;22.80;99.90;;;;;;7304011;19;9276;-70
2023/06/22 08:13:02;;;;;;;;;;;22.80;99.90;;;;;;7306410;19;9402;-70
2023/06/22 08:15:31;;;;;;;;;;;23.10;99.80;;;;;;7304002;19;8945;-70
2023/06/22 08:18:00;;;;;;;;;;;23.30;98.00;;;;;;7305027;19;9321;-70
2023/06/22 08:20:32;;;;;;;;;;;23.20;98.00;;;;;;7305989;19;9229;-70
2023/06/22 08:23:05;;;;;;;;;;;23.50;97.00;;;;;;7306027;19;9245;-71
2023/06/22 08:25:35;;;;;;;;;;;23.50;96.60;;;;;;7304960;19;9510;-70
2023/06/22 08:28:05;;;;;;;;;;;23.50;97.20;;;;;;7306444;19;9439;-70
2023/06/22 08:30:34;;;;;;;;;;;23.50;94.40;;;;;;7301759;19;9237;-71
2023/06/22 08:33:03;;;;;;;;;;;23.50;96.90;;;;;;7304355;19;9261;-71
2023/06/22 08:35:35;;;;;;;;;;;23.80;97.60;;;;;;7301355;19;9489;-70
2023/06/22 08:38:05;;;;;;;;;;;23.60;96.70;;;;;;7304752;19;9406;-70
2023/06/22 08:40:34;;;;;;;;;;;23.90;95.90;;;;;;7302931;19;9774;-71
2023/06/22 08:43:03;;;;;;;;;;;23.70;96.00;;;;;;7305507;19;9455;-71
2023/06/22 08:45:32;;;;;;;;;;;24.00;95.00;;;;;;7304501;19;9237;-70
2023/06/22 08:48:01;;;;;;;;;;;24.10;94.70;;;;;;7304174;19;9463;-70
2023/06/22 08:50:30;;;;;;;;;;;24.10;95.10;;;;;;7308339;19;10143;-71
2023/06/22 08:53:02;;;;;;;;;;;24.30;94.40;;;;;;7303917;19;9245;-70
2023/06/22 08:55:31;;;;;;;;;;;24.20;93.30;;;;;;7298945;19;9928;-70
2023/06/22 08:58:00;;;;;;;;;;;24.00;92.90;;;;;;7304537;19;9361;-70
2023/06/22 09:00:32;;;;;;;;;;;24.10;94.10;;;;;;7302486;19;9393;-70
2023/06/22 09:03:01;;;;;;;;;;;24.00;94.60;;;;;;7302070;19;10126;-70
2023/06/22 09:05:31;;;;;;;;;;;23.70;96.20;;;;;;7306380;19;9271;-70
2023/06/22 09:08:03;;;;;;;;;;;23.70;94.00;;;;;;7304660;19;9347;-70
2023/06/22 09:10:32;;;;;;;;;;;23.70;94.80;;;;;;7302676;19;9205;-70
2023/06/22 09:13:01;;;;;;;;;;;23.40;93.30;;;;;;7305192;19;9399;-70
2023/06/22 09:15:30;;;;;;;;;;;23.70;95.20;;;;;;7305188;19;9278;-70
2023/06/22 09:17:59;;;;;;;;;;;23.70;94.80;;;;;;7307362;19;9224;-70
2023/06/22 09:20:28;;;;;;;;;;;23.80;96.50;;;;;;7304383;19;9459;-71
2023/06/22 09:22:58;;;;;;;;;;;24.10;95.80;;;;;;7305371;19;9249;-70
2023/06/22 09:25:29;;;;;;;;;;;24.10;94.10;;;;;;7304818;19;10486;-71
2023/06/22 09:27:58;;;;;;;;;;;24.20;94.90;;;;;;7303494;19;9281;-70
2023/06/22 09:30:27;;;;;;;;;;;24.30;93.10;;;;;;7304276;19;10831;-72
2023/06/22 09:32:57;;;;;;;;;;;24.00;90.90;;;;;;7305248;19;9763;-71
2023/06/22 09:35:26;;;;;;;;;;;24.20;93.30;;;;;;7302228;19;9429;-71
2023/06/22 09:37:55;;;;;;;;;;;24.30;94.50;;;;;;7304301;19;9176;-71
2023/06/22 09:40:25;;;;;;;;;;;24.50;94.80;;;;;;7302394;19;9288;-71
2023/06/22 09:42:56;;;;;;;;;;;24.40;92.10;;;;;;7304074;19;9052;-71
2023/06/22 09:45:25;;;;;;;;;;;24.60;94.10;;;;;;7300105;19;8945;-71
2023/06/22 09:47:55;;;;;;;;;;;24.70;93.50;;;;;;7304622;19;9249;-71
2023/06/22 09:50:24;;;;;;;;;;;24.90;92.40;;;;;;7307289;19;11437;-71
2023/06/22 09:52:54;;;;;;;;;;;24.20;90.00;;;;;;7296072;19;9467;-72
2023/06/22 09:55:23;;;;;;;;;;;24.50;92.10;;;;;;7298959;19;9399;-72
2023/06/22 09:57:52;;;;;;;;;;;24.80;90.70;;;;;;7296520;19;9323;-74
2023/06/22 10:00:26;;;;;;;;;;;24.90;90.30;;;;;;7299238;19;10136;-73
2023/06/22 10:02:55;;;;;;;;;;;25.10;90.00;;;;;;7274252;19;10414;-73
2023/06/22 10:05:25;;;;;;;;;;;25.20;91.40;;;;;;7300633;19;9558;-73
2023/06/22 10:07:54;;;;;;;;;;;25.40;90.20;;;;;;7310693;19;9303;-73
2023/06/22 10:10:23;;;;;;;;;;;25.60;90.80;;;;;;7310208;19;9225;-73
2023/06/22 10:12:59;;;;;;;;;;;25.70;86.40;;;;;;7306948;19;9376;-73
2023/06/22 10:15:31;;;;;;;;;;;25.90;88.50;;;;;;7309778;19;9399;-73
2023/06/22 10:18:00;;;;;;;;;;;26.00;87.20;;;;;;7309833;19;9258;-73
2023/06/22 10:20:30;;;;;;;;;;;26.00;85.60;;;;;;7307516;19;9515;-74
2023/06/22 10:22:59;;;;;;;;;;;26.10;86.60;;;;;;7306122;19;9245;-73
2023/06/22 10:25:30;;;;;;;;;;;26.30;86.80;;;;;;7305195;19;9481;-73
2023/06/22 10:27:59;;;;;;;;;;;26.30;85.30;;;;;;7308070;19;10138;-73
2023/06/22 10:30:31;;;;;;;;;;;26.30;84.10;;;;;;7307246;19;9221;-74
2023/06/22 10:33:00;;;;;;;;;;;26.40;83.70;;;;;;7303993;19;9268;-73
2023/06/22 10:35:29;;;;;;;;;;;26.50;84.40;;;;;;7304999;19;9236;-74
2023/06/22 10:37:58;;;;;;;;;;;26.60;83.20;;;;;;7305960;19;10130;-74
2023/06/22 10:40:28;;;;;;;;;;;26.50;83.00;;;;;;7307587;19;9261;-74
2023/06/22 10:42:57;;;;;;;;;;;26.60;83.50;;;;;;7308625;19;10086;-74
2023/06/22 10:45:27;;;;;;;;;;;26.60;81.70;;;;;;7304910;19;10130;-74
2023/06/22 10:47:59;;;;;;;;;;;26.40;79.00;;;;;;7306226;19;9265;-74
2023/06/22 10:50:28;;;;;;;;;;;26.10;80.70;;;;;;7310619;19;9363;-74
2023/06/22 10:52:57;;;;;;;;;;;26.10;81.80;;;;;;7305564;19;9270;-74
2023/06/22 10:55:26;;;;;;;;;;;26.10;83.20;;;;;;7305479;19;9224;-74
2023/06/22 10:57:55;;;;;;;;;;;26.20;79.00;;;;;;7304770;19;10639;-72
2023/06/22 11:00:25;;;;;;;;;;;26.40;81.10;;;;;;7303974;19;9246;-76
2023/06/22 11:02:54;;;;;;;;;;;26.40;82.60;;;;;;7305835;19;11082;-74
2023/06/22 11:05:25;;;;;;;;;;;26.50;80.20;;;;;;7307006;19;9338;-72
2023/06/22 11:07:55;;;;;;;;;;;26.60;80.20;;;;;;7307175;19;9213;-73
2023/06/22 11:10:24;;;;;;;;;;;26.60;79.10;;;;;;7306800;19;9300;-73
2023/06/22 11:12:53;;;;;;;;;;;26.60;82.00;;;;;;7307094;19;9003;-73
2023/06/22 11:15:22;;;;;;;;;;;26.70;81.70;;;;;;7309182;19;9223;-73
2023/06/22 11:17:51;;;;;;;;;;;26.90;80.00;;;;;;7306724;19;9245;-73
2023/06/22 11:20:20;;;;;;;;;;;27.00;80.70;;;;;;7305266;19;9272;-73
2023/06/22 11:22:52;;;;;;;;;;;27.10;79.40;;;;;;7306758;19;10198;-73
2023/06/22 11:25:21;;;;;;;;;;;27.30;78.80;;;;;;7306752;19;9558;-73
2023/06/22 11:27:51;;;;;;;;;;;27.40;78.80;;;;;;7306999;19;9487;-72
2023/06/22 11:30:20;;;;;;;;;;;27.40;77.60;;;;;;7302997;19;10157;-73
2023/06/22 11:32:49;;;;;;;;;;;27.40;76.60;;;;;;7299254;19;9165;-73
2023/06/22 11:35:18;;;;;;;;;;;27.30;78.30;;;;;;7301225;19;9248;-73
2023/06/22 11:37:47;;;;;;;;;;;27.10;76.00;;;;;;7304189;19;9272;-73
2023/06/22 11:40:19;;;;;;;;;;;26.90;75.40;;;;;;7301173;19;12144;-73
2023/06/22 11:42:49;;;;;;;;;;;26.90;78.10;;;;;;7302602;19;9297;-73
2023/06/22 11:45:18;;;;;;;;;;;26.90;76.80;;;;;;7299628;19;9503;-73
2023/06/22 11:47:47;;;;;;;;;;;26.80;77.50;;;;;;7302016;19;9434;-73
2023/06/22 11:50:17;;;;;;;;;;;26.80;77.40;;;;;;7308290;19;9279;-73
2023/06/22 11:52:46;;;;;;;;;;;26.70;76.60;;;;;;7303508;19;9187;-73
2023/06/22 11:55:18;;;;;;;;;;;26.80;77.30;;;;;;7301030;19;9504;-73
2023/06/22 11:58:00;;;;;;;;;;;26.80;76.90;;;;;;7304826;19;9265;-73
2023/06/22 12:00:29;;;;;;;;;;;26.90;77.60;;;;;;7303219;19;9248;-73
2023/06/22 12:02:59;;;;;;;;;;;26.90;77.50;;;;;;7309503;19;9225;-73
2023/06/22 12:05:28;;;;;;;;;;;26.90;77.80;;;;;;7306372;19;9396;-73
2023/06/22 12:07:57;;;;;;;;;;;27.00;76.20;;;;;;7307590;19;9287;-73
2023/06/22 12:10:30;;;;;;;;;;;27.10;74.70;;;;;;7305287;19;9338;-72
2023/06/22 12:13:00;;;;;;;;;;;27.10;73.10;;;;;;7306012;19;9251;-72
2023/06/22 12:15:29;;;;;;;;;;;27.10;74.80;;;;;;7306585;19;9275;-73
2023/06/22 12:17:58;;;;;;;;;;;27.10;76.60;;;;;;7305617;19;9241;-73
2023/06/22 12:20:28;;;;;;;;;;;27.10;75.70;;;;;;7305426;19;9611;-73
2023/06/22 12:22:58;;;;;;;;;;;27.00;74.60;;;;;;7305333;19;10262;-73
2023/06/22 12:25:29;;;;;;;;;;;27.00;74.20;;;;;;7306926;19;9328;-73
2023/06/22 12:27:58;;;;;;;;;;;26.90;74.40;;;;;;7303524;19;9883;-73
2023/06/22 12:30:28;;;;;;;;;;;26.80;75.20;;;;;;7302659;19;9462;-74
2023/06/22 12:32:57;;;;;;;;;;;26.80;76.30;;;;;;7304848;19;9432;-73
2023/06/22 12:35:26;;;;;;;;;;;26.70;75.50;;;;;;7302718;19;9492;-74
2023/06/22 12:37:55;;;;;;;;;;;26.80;76.30;;;;;;7306088;19;9276;-74
2023/06/22 12:40:24;;;;;;;;;;;26.80;76.30;;;;;;7303882;19;9179;-73
2023/06/22 12:42:57;;;;;;;;;;;27.00;77.30;;;;;;7306000;19;9464;-73
2023/06/22 12:45:28;;;;;;;;;;;26.90;74.10;;;;;;7305019;19;9470;-73
2023/06/22 12:47:57;;;;;;;;;;;27.00;73.30;;;;;;7304866;19;9265;-72
2023/06/22 12:50:26;;;;;;;;;;;27.00;75.40;;;;;;7308626;19;10206;-74
2023/06/22 12:52:56;;;;;;;;;;;27.00;72.60;;;;;;7302924;19;9287;-73
2023/06/22 12:55:25;;;;;;;;;;;27.10;73.00;;;;;;7303587;19;9263;-73
2023/06/22 12:57:56;;;;;;;;;;;27.10;73.90;;;;;;7306206;19;9233;-73
2023/06/22 13:00:27;;;;;;;;;;;27.10;72.50;;;;;;7303146;19;9452;-73
2023/06/22 13:02:56;;;;;;;;;;;27.10;72.20;;;;;;7302815;19;9278;-73
2023/06/22 13:05:25;;;;;;;;;;;27.00;72.00;;;;;;7302651;19;9281;-73
2023/06/22 13:07:54;;;;;;;;;;;26.80;71.50;;;;;;7302951;19;8945;-73
2023/06/22 13:10:23;;;;;;;;;;;26.70;71.80;;;;;;7302187;19;10411;-73
2023/06/22 13:13:00;;;;;;;;;;;26.50;73.40;;;;;;7301660;19;9229;-73
2023/06/22 13:15:31;;;;;;;;;;;26.40;74.90;;;;;;7303914;19;8944;-73
2023/06/22 13:18:00;;;;;;;;;;;26.50;73.50;;;;;;7301300;19;9752;-73
2023/06/22 13:20:31;;;;;;;;;;;26.40;73.80;;;;;;7304415;19;9455;-72
2023/06/22 13:23:00;;;;;;;;;;;26.40;73.70;;;;;;7302831;19;9219;-73
2023/06/22 13:25:29;;;;;;;;;;;26.40;74.50;;;;;;7303143;19;9269;-73
2023/06/22 13:27:58;;;;;;;;;;;26.40;73.10;;;;;;7305534;19;9264;-73
2023/06/22 13:30:27;;;;;;;;;;;26.30;73.50;;;;;;7302026;19;8944;-73
2023/06/22 13:32:59;;;;;;;;;;;26.10;73.80;;;;;;7302798;19;9249;-73
2023/06/22 13:35:28;;;;;;;;;;;26.00;74.60;;;;;;7301895;19;9301;-73
2023/06/22 13:37:57;;;;;;;;;;;25.80;76.20;;;;;;7303305;19;9233;-73
2023/06/22 13:40:26;;;;;;;;;;;25.80;77.70;;;;;;7303868;19;9269;-73
2023/06/22 13:42:56;;;;;;;;;;;25.70;77.10;;;;;;7312728;19;9269;-72
2023/06/22 13:45:25;;;;;;;;;;;25.60;78.50;;;;;;7310024;19;9566;-73
2023/06/22 13:47:54;;;;;;;;;;;25.50;80.50;;;;;;7311583;19;9466;-72
2023/06/22 13:50:26;;;;;;;;;;;25.40;81.20;;;;;;7314022;19;9266;-73
2023/06/22 13:52:55;;;;;;;;;;;25.40;80.80;;;;;;7309126;19;9305;-73
2023/06/22 13:55:26;;;;;;;;;;;25.30;80.70;;;;;;7310334;19;10233;-73
2023/06/22 13:57:55;;;;;;;;;;;25.30;81.00;;;;;;7310755;19;9549;-73
2023/06/22 14:00:24;;;;;;;;;;;25.20;81.40;;;;;;7306500;19;9240;-73
2023/06/22 14:02:54;;;;;;;;;;;25.10;81.60;;;;;;7309041;19;9733;-73
2023/06/22 14:05:26;;;;;;;;;;;25.10;81.10;;;;;;7311518;19;9237;-73
2023/06/22 14:07:55;;;;;;;;;;;25.10;80.80;;;;;;7309993;19;9237;-73
2023/06/22 14:10:24;;;;;;;;;;;24.90;81.60;;;;;;7309453;19;9489;-73
2023/06/22 14:12:53;;;;;;;;;;;24.80;82.00;;;;;;7311397;19;9879;-73
2023/06/22 14:15:22;;;;;;;;;;;24.70;82.10;;;;;;7308444;19;9225;-73
2023/06/22 14:17:51;;;;;;;;;;;24.70;82.60;;;;;;7309347;19;11419;-73
2023/06/22 14:20:21;;;;;;;;;;;24.50;82.50;;;;;;7308559;19;9240;-73
2023/06/22 14:22:52;;;;;;;;;;;24.50;82.90;;;;;;7308666;19;9274;-73
2023/06/22 14:25:21;;;;;;;;;;;24.40;83.10;;;;;;7307391;19;10053;-72
2023/06/22 14:27:50;;;;;;;;;;;24.40;82.90;;;;;;7309928;19;10274;-72
2023/06/22 14:30:20;;;;;;;;;;;24.30;83.40;;;;;;7309231;19;10676;-73
2023/06/22 14:32:49;;;;;;;;;;;24.20;83.90;;;;;;7307847;19;9246;-72
2023/06/22 14:35:18;;;;;;;;;;;24.10;84.00;;;;;;7308362;19;8944;-73
2023/06/22 14:37:48;;;;;;;;;;;24.00;84.90;;;;;;7307819;19;9000;-73
2023/06/22 14:40:20;;;;;;;;;;;24.00;85.50;;;;;;7306126;19;8944;-73
2023/06/22 14:42:49;;;;;;;;;;;23.90;85.70;;;;;;7308455;19;10150;-73
2023/06/22 14:45:18;;;;;;;;;;;23.80;85.60;;;;;;7308103;19;8948;-71